sensor_id;sensor_type;location;lat;lon;timestamp;temperature;humidity
40123;DHT22;25832;45.490;4.912;2023-09-18T00:00:48;24.60;93.50
40123;DHT22;25832;45.490;4.912;2023-09-18T00:03:21;24.50;93.60
40123;DHT22;25832;45.490;4.912;2023-09-18T00:05:50;24.50;93.60
40123;DHT22;25832;45.490;4.912;2023-09-18T00:08:17;24.50;93.80
40123;DHT22;25832;45.490;4.912;2023-09-18T00:10:51;24.40;93.70
40123;DHT22;25832;45.490;4.912;2023-09-18T00:13:17;24.30;93.10
40123;DHT22;25832;45.490;4.912;2023-09-18T00:15:43;24.40;91.40
40123;DHT22;25832;45.490;4.912;2023-09-18T00:18:15;24.40;91.20
40123;DHT22;25832;45.490;4.912;2023-09-18T00:20:41;24.50;90.70
40123;DHT22;25832;45.490;4.912;2023-09-18T00:23:07;24.50;90.00
40123;DHT22;25832;45.490;4.912;2023-09-18T00:25:34;24.50;89.50
40123;DHT22;25832;45.490;4.912;2023-09-18T00:27:59;24.50;87.80
40123;DHT22;25832;45.490;4.912;2023-09-18T00:30:25;24.50;88.30
40123;DHT22;25832;45.490;4.912;2023-09-18T00:32:51;24.50;88.00
40123;DHT22;25832;45.490;4.912;2023-09-18T00:35:17;24.50;88.20
40123;DHT22;25832;45.490;4.912;2023-09-18T00:37:44;24.50;88.10
40123;DHT22;25832;45.490;4.912;2023-09-18T00:40:10;24.40;88.30
40123;DHT22;25832;45.490;4.912;2023-09-18T00:42:36;24.40;87.80
40123;DHT22;25832;45.490;4.912;2023-09-18T00:45:02;24.40;87.70
40123;DHT22;25832;45.490;4.912;2023-09-18T00:47:28;24.30;87.80
40123;DHT22;25832;45.490;4.912;2023-09-18T00:49:54;24.30;87.70
40123;DHT22;25832;45.490;4.912;2023-09-18T00:52:22;24.40;88.20
40123;DHT22;25832;45.490;4.912;2023-09-18T00:54:49;24.30;88.00
40123;DHT22;25832;45.490;4.912;2023-09-18T00:57:15;24.20;88.10
40123;DHT22;25832;45.490;4.912;2023-09-18T00:59:41;24.20;88.30
40123;DHT22;25832;45.490;4.912;2023-09-18T01:02:07;24.10;88.30
40123;DHT22;25832;45.490;4.912;2023-09-18T01:04:34;24.10;89.30
40123;DHT22;25832;45.490;4.912;2023-09-18T01:07:03;24.00;90.50
40123;DHT22;25832;45.490;4.912;2023-09-18T01:09:30;23.90;91.10
40123;DHT22;25832;45.490;4.912;2023-09-18T01:12:08;23.80;91.70
40123;DHT22;25832;45.490;4.912;2023-09-18T01:14:37;23.60;91.80
40123;DHT22;25832;45.490;4.912;2023-09-18T01:17:06;23.50;92.00
40123;DHT22;25832;45.490;4.912;2023-09-18T01:19:42;23.30;92.20
40123;DHT22;25832;45.490;4.912;2023-09-18T01:22:15;23.30;92.50
40123;DHT22;25832;45.490;4.912;2023-09-18T01:24:43;23.10;92.90
40123;DHT22;25832;45.490;4.912;2023-09-18T01:27:11;23.00;92.90
40123;DHT22;25832;45.490;4.912;2023-09-18T01:29:38;22.90;93.10
40123;DHT22;25832;45.490;4.912;2023-09-18T01:32:05;22.90;93.20
40123;DHT22;25832;45.490;4.912;2023-09-18T01:34:37;22.90;93.30
40123;DHT22;25832;45.490;4.912;2023-09-18T01:37:07;23.00;93.10
40123;DHT22;25832;45.490;4.912;2023-09-18T01:39:35;23.00;93.00
40123;DHT22;25832;45.490;4.912;2023-09-18T01:42:03;23.10;93.10
40123;DHT22;25832;45.490;4.912;2023-09-18T01:44:36;23.20;93.20
40123;DHT22;25832;45.490;4.912;2023-09-18T01:47:07;23.20;93.10
40123;DHT22;25832;45.490;4.912;2023-09-18T01:49:35;23.10;93.50
40123;DHT22;25832;45.490;4.912;2023-09-18T01:52:02;23.10;93.40
40123;DHT22;25832;45.490;4.912;2023-09-18T01:54:29;23.00;94.00
40123;DHT22;25832;45.490;4.912;2023-09-18T01:56:55;22.90;94.30
40123;DHT22;25832;45.490;4.912;2023-09-18T01:59:22;22.90;95.90
40123;DHT22;25832;45.490;4.912;2023-09-18T02:01:49;22.70;98.70
40123;DHT22;25832;45.490;4.912;2023-09-18T02:04:15;22.50;98.50
40123;DHT22;25832;45.490;4.912;2023-09-18T02:06:41;22.40;98.50
40123;DHT22;25832;45.490;4.912;2023-09-18T02:09:07;22.10;99.20
40123;DHT22;25832;45.490;4.912;2023-09-18T02:11:41;22.00;99.90
40123;DHT22;25832;45.490;4.912;2023-09-18T02:14:07;21.90;99.90
40123;DHT22;25832;45.490;4.912;2023-09-18T02:16:35;21.80;99.90
40123;DHT22;25832;45.490;4.912;2023-09-18T02:19:04;21.80;99.90
40123;DHT22;25832;45.490;4.912;2023-09-18T02:21:31;21.70;99.90
40123;DHT22;25832;45.490;4.912;2023-09-18T02:23:56;21.60;99.90
40123;DHT22;25832;45.490;4.912;2023-09-18T02:26:23;21.50;99.90
40123;DHT22;25832;45.490;4.912;2023-09-18T02:28:51;21.40;99.90
40123;DHT22;25832;45.490;4.912;2023-09-18T02:31:17;21.40;99.90
40123;DHT22;25832;45.490;4.912;2023-09-18T02:33:43;21.30;99.90
40123;DHT22;25832;45.490;4.912;2023-09-18T02:36:08;21.00;99.90
40123;DHT22;25832;45.490;4.912;2023-09-18T02:38:34;20.90;99.90
40123;DHT22;25832;45.490;4.912;2023-09-18T02:41:00;20.60;99.90
40123;DHT22;25832;45.490;4.912;2023-09-18T02:43:26;20.40;99.90
40123;DHT22;25832;45.490;4.912;2023-09-18T02:45:52;20.30;99.90
40123;DHT22;25832;45.490;4.912;2023-09-18T02:48:18;20.20;99.90
40123;DHT22;25832;45.490;4.912;2023-09-18T02:50:44;20.20;99.90
40123;DHT22;25832;45.490;4.912;2023-09-18T02:53:23;20.10;99.90
40123;DHT22;25832;45.490;4.912;2023-09-18T02:55:54;20.00;99.90
40123;DHT22;25832;45.490;4.912;2023-09-18T02:58:20;20.00;99.90
40123;DHT22;25832;45.490;4.912;2023-09-18T03:00:49;20.00;99.90
40123;DHT22;25832;45.490;4.912;2023-09-18T03:03:16;19.90;99.90
40123;DHT22;25832;45.490;4.912;2023-09-18T03:05:43;19.80;99.90
40123;DHT22;25832;45.490;4.912;2023-09-18T03:08:13;19.80;99.90
40123;DHT22;25832;45.490;4.912;2023-09-18T03:10:40;19.70;99.90
40123;DHT22;25832;45.490;4.912;2023-09-18T03:13:07;19.50;99.90
40123;DHT22;25832;45.490;4.912;2023-09-18T03:15:33;19.40;99.90
40123;DHT22;25832;45.490;4.912;2023-09-18T03:18:00;19.30;99.90
40123;DHT22;25832;45.490;4.912;2023-09-18T03:20:27;19.20;99.90
40123;DHT22;25832;45.490;4.912;2023-09-18T03:22:58;19.00;99.90
40123;DHT22;25832;45.490;4.912;2023-09-18T03:25:24;18.90;99.90
40123;DHT22;25832;45.490;4.912;2023-09-18T03:27:52;18.90;99.90
40123;DHT22;25832;45.490;4.912;2023-09-18T03:30:19;18.80;99.90
40123;DHT22;25832;45.490;4.912;2023-09-18T03:32:45;18.80;99.90
40123;DHT22;25832;45.490;4.912;2023-09-18T03:35:17;18.80;99.90
40123;DHT22;25832;45.490;4.912;2023-09-18T03:37:53;18.70;99.90
40123;DHT22;25832;45.490;4.912;2023-09-18T03:40:22;18.70;99.90
40123;DHT22;25832;45.490;4.912;2023-09-18T03:42:48;18.60;99.90
40123;DHT22;25832;45.490;4.912;2023-09-18T03:45:14;18.60;99.90
40123;DHT22;25832;45.490;4.912;2023-09-18T03:47:41;18.60;99.90
40123;DHT22;25832;45.490;4.912;2023-09-18T03:50:10;18.60;99.90
40123;DHT22;25832;45.490;4.912;2023-09-18T03:52:37;18.60;99.90
40123;DHT22;25832;45.490;4.912;2023-09-18T03:55:04;18.50;99.90
40123;DHT22;25832;45.490;4.912;2023-09-18T03:57:30;18.50;99.90
40123;DHT22;25832;45.490;4.912;2023-09-18T03:59:55;18.50;99.90
40123;DHT22;25832;45.490;4.912;2023-09-18T04:02:23;18.50;99.90
40123;DHT22;25832;45.490;4.912;2023-09-18T04:04:49;18.40;99.90
40123;DHT22;25832;45.490;4.912;2023-09-18T04:07:14;18.50;99.90
40123;DHT22;25832;45.490;4.912;2023-09-18T04:09:42;18.50;99.90
40123;DHT22;25832;45.490;4.912;2023-09-18T04:12:08;18.50;99.90
40123;DHT22;25832;45.490;4.912;2023-09-18T04:14:34;18.50;99.90
40123;DHT22;25832;45.490;4.912;2023-09-18T04:16:59;18.50;99.90
40123;DHT22;25832;45.490;4.912;2023-09-18T04:19:28;18.60;99.90
40123;DHT22;25832;45.490;4.912;2023-09-18T04:21:54;18.60;99.90
40123;DHT22;25832;45.490;4.912;2023-09-18T04:24:19;18.70;99.90
40123;DHT22;25832;45.490;4.912;2023-09-18T04:26:45;18.70;99.90
40123;DHT22;25832;45.490;4.912;2023-09-18T04:29:11;18.70;99.90
40123;DHT22;25832;45.490;4.912;2023-09-18T04:31:36;18.70;99.90
40123;DHT22;25832;45.490;4.912;2023-09-18T04:34:03;18.60;99.90
40123;DHT22;25832;45.490;4.912;2023-09-18T04:36:29;18.60;99.90
40123;DHT22;25832;45.490;4.912;2023-09-18T04:38:55;18.60;99.90
40123;DHT22;25832;45.490;4.912;2023-09-18T04:41:21;18.60;99.90
40123;DHT22;25832;45.490;4.912;2023-09-18T04:43:46;18.60;99.90
40123;DHT22;25832;45.490;4.912;2023-09-18T04:46:12;18.60;99.90
40123;DHT22;25832;45.490;4.912;2023-09-18T04:48:38;18.60;99.90
40123;DHT22;25832;45.490;4.912;2023-09-18T04:51:04;18.60;99.90
40123;DHT22;25832;45.490;4.912;2023-09-18T04:53:30;18.50;99.90
40123;DHT22;25832;45.490;4.912;2023-09-18T04:55:56;18.40;99.90
40123;DHT22;25832;45.490;4.912;2023-09-18T04:58:22;18.40;99.90
40123;DHT22;25832;45.490;4.912;2023-09-18T05:00:58;18.30;99.90
40123;DHT22;25832;45.490;4.912;2023-09-18T05:03:24;18.30;99.90
40123;DHT22;25832;45.490;4.912;2023-09-18T05:05:52;18.30;99.90
40123;DHT22;25832;45.490;4.912;2023-09-18T05:08:18;18.30;99.90
40123;DHT22;25832;45.490;4.912;2023-09-18T05:10:43;18.30;99.90
40123;DHT22;25832;45.490;4.912;2023-09-18T05:13:10;18.30;99.90
40123;DHT22;25832;45.490;4.912;2023-09-18T05:15:36;18.30;99.90
40123;DHT22;25832;45.490;4.912;2023-09-18T05:18:02;18.20;99.90
40123;DHT22;25832;45.490;4.912;2023-09-18T05:20:30;18.20;99.90
40123;DHT22;25832;45.490;4.912;2023-09-18T05:22:57;18.20;99.90
40123;DHT22;25832;45.490;4.912;2023-09-18T05:25:25;18.30;99.90
40123;DHT22;25832;45.490;4.912;2023-09-18T05:27:52;18.30;99.90
40123;DHT22;25832;45.490;4.912;2023-09-18T05:30:29;18.30;99.90
40123;DHT22;25832;45.490;4.912;2023-09-18T05:32:58;18.20;99.90
40123;DHT22;25832;45.490;4.912;2023-09-18T05:37:59;18.20;99.90
40123;DHT22;25832;45.490;4.912;2023-09-18T05:40:25;18.20;99.90
40123;DHT22;25832;45.490;4.912;2023-09-18T05:42:54;18.20;99.90
40123;DHT22;25832;45.490;4.912;2023-09-18T05:45:20;18.20;99.90
40123;DHT22;25832;45.490;4.912;2023-09-18T05:47:45;18.10;99.90
40123;DHT22;25832;45.490;4.912;2023-09-18T05:50:12;18.10;99.90
40123;DHT22;25832;45.490;4.912;2023-09-18T05:52:43;18.10;99.90
40123;DHT22;25832;45.490;4.912;2023-09-18T05:55:10;18.20;99.90
40123;DHT22;25832;45.490;4.912;2023-09-18T05:57:36;18.20;99.90
40123;DHT22;25832;45.490;4.912;2023-09-18T06:00:02;18.40;99.90
40123;DHT22;25832;45.490;4.912;2023-09-18T06:02:28;18.40;99.90
40123;DHT22;25832;45.490;4.912;2023-09-18T06:04:55;18.40;99.90
40123;DHT22;25832;45.490;4.912;2023-09-18T06:07:26;18.40;99.90
40123;DHT22;25832;45.490;4.912;2023-09-18T06:09:52;18.40;99.90
40123;DHT22;25832;45.490;4.912;2023-09-18T06:12:17;18.30;99.90
40123;DHT22;25832;45.490;4.912;2023-09-18T06:14:43;18.20;99.90
40123;DHT22;25832;45.490;4.912;2023-09-18T06:17:10;18.20;99.90
40123;DHT22;25832;45.490;4.912;2023-09-18T06:19:36;18.20;99.90
40123;DHT22;25832;45.490;4.912;2023-09-18T06:22:02;18.20;99.90
40123;DHT22;25832;45.490;4.912;2023-09-18T06:24:27;18.20;99.90
40123;DHT22;25832;45.490;4.912;2023-09-18T06:26:53;18.30;99.90
40123;DHT22;25832;45.490;4.912;2023-09-18T06:29:19;18.30;99.90
40123;DHT22;25832;45.490;4.912;2023-09-18T06:31:46;18.30;99.90
40123;DHT22;25832;45.490;4.912;2023-09-18T06:34:12;18.30;99.90
40123;DHT22;25832;45.490;4.912;2023-09-18T06:36:37;18.30;99.90
40123;DHT22;25832;45.490;4.912;2023-09-18T06:39:03;18.30;99.90
40123;DHT22;25832;45.490;4.912;2023-09-18T06:41:29;18.40;99.90
40123;DHT22;25832;45.490;4.912;2023-09-18T06:43:54;18.40;99.90
40123;DHT22;25832;45.490;4.912;2023-09-18T06:46:20;18.30;99.90
40123;DHT22;25832;45.490;4.912;2023-09-18T06:48:46;18.30;99.90
40123;DHT22;25832;45.490;4.912;2023-09-18T06:51:15;18.30;99.90
40123;DHT22;25832;45.490;4.912;2023-09-18T06:53:41;18.40;99.90
40123;DHT22;25832;45.490;4.912;2023-09-18T06:56:07;18.40;99.90
40123;DHT22;25832;45.490;4.912;2023-09-18T06:58:34;18.40;99.90
40123;DHT22;25832;45.490;4.912;2023-09-18T07:01:00;18.40;99.90
40123;DHT22;25832;45.490;4.912;2023-09-18T07:03:26;18.40;99.90
40123;DHT22;25832;45.490;4.912;2023-09-18T07:05:51;18.30;99.90
40123;DHT22;25832;45.490;4.912;2023-09-18T07:08:17;18.30;99.90
40123;DHT22;25832;45.490;4.912;2023-09-18T11:59:42;18.60;99.90
40123;DHT22;25832;45.490;4.912;2023-09-18T12:02:12;19.20;99.90
40123;DHT22;25832;45.490;4.912;2023-09-18T12:04:46;19.30;99.90
40123;DHT22;25832;45.490;4.912;2023-09-18T12:07:13;19.50;99.90
40123;DHT22;25832;45.490;4.912;2023-09-18T12:09:39;19.50;99.90
40123;DHT22;25832;45.490;4.912;2023-09-18T12:12:08;19.50;99.90
40123;DHT22;25832;45.490;4.912;2023-09-18T12:14:34;19.60;99.90
40123;DHT22;25832;45.490;4.912;2023-09-18T12:17:01;19.70;99.90
40123;DHT22;25832;45.490;4.912;2023-09-18T12:19:28;19.80;99.90
40123;DHT22;25832;45.490;4.912;2023-09-18T12:21:54;20.00;99.90
40123;DHT22;25832;45.490;4.912;2023-09-18T12:24:22;20.10;99.90
40123;DHT22;25832;45.490;4.912;2023-09-18T12:26:49;20.20;99.90
40123;DHT22;25832;45.490;4.912;2023-09-18T12:29:15;20.40;99.90
40123;DHT22;25832;45.490;4.912;2023-09-18T12:31:41;20.50;99.90
40123;DHT22;25832;45.490;4.912;2023-09-18T12:34:34;20.40;99.90
40123;DHT22;25832;45.490;4.912;2023-09-18T12:37:00;20.40;99.90
40123;DHT22;25832;45.490;4.912;2023-09-18T12:39:32;20.40;99.90
40123;DHT22;25832;45.490;4.912;2023-09-18T12:41:58;20.50;99.90
40123;DHT22;25832;45.490;4.912;2023-09-18T12:44:24;20.70;99.90
40123;DHT22;25832;45.490;4.912;2023-09-18T12:46:49;20.90;99.90
40123;DHT22;25832;45.490;4.912;2023-09-18T12:49:22;21.00;99.90
40123;DHT22;25832;45.490;4.912;2023-09-18T12:51:59;21.00;99.90
40123;DHT22;25832;45.490;4.912;2023-09-18T12:54:45;20.90;99.90
40123;DHT22;25832;45.490;4.912;2023-09-18T12:57:21;21.00;99.90
40123;DHT22;25832;45.490;4.912;2023-09-18T12:59:47;21.10;99.90
40123;DHT22;25832;45.490;4.912;2023-09-18T13:02:17;21.30;99.90
40123;DHT22;25832;45.490;4.912;2023-09-18T13:04:55;21.50;99.90
40123;DHT22;25832;45.490;4.912;2023-09-18T13:07:21;21.60;99.90
40123;DHT22;25832;45.490;4.912;2023-09-18T13:10:01;21.70;99.90
40123;DHT22;25832;45.490;4.912;2023-09-18T13:15:06;22.00;99.90
40123;DHT22;25832;45.490;4.912;2023-09-18T13:17:44;22.20;99.90
40123;DHT22;25832;45.490;4.912;2023-09-18T13:20:25;22.30;99.90
40123;DHT22;25832;45.490;4.912;2023-09-18T13:22:59;22.30;99.90
40123;DHT22;25832;45.490;4.912;2023-09-18T13:25:29;22.30;99.90
40123;DHT22;25832;45.490;4.912;2023-09-18T13:27:55;22.30;99.90
40123;DHT22;25832;45.490;4.912;2023-09-18T13:30:21;22.30;99.90
40123;DHT22;25832;45.490;4.912;2023-09-18T13:32:49;22.30;99.90
40123;DHT22;25832;45.490;4.912;2023-09-18T13:35:16;22.20;99.90
40123;DHT22;25832;45.490;4.912;2023-09-18T13:37:42;22.10;99.90
40123;DHT22;25832;45.490;4.912;2023-09-18T13:40:08;22.00;99.90
40123;DHT22;25832;45.490;4.912;2023-09-18T13:42:37;22.00;99.90
40123;DHT22;25832;45.490;4.912;2023-09-18T13:45:04;22.00;99.90
40123;DHT22;25832;45.490;4.912;2023-09-18T13:47:33;22.10;99.90
40123;DHT22;25832;45.490;4.912;2023-09-18T13:50:00;22.20;99.90
40123;DHT22;25832;45.490;4.912;2023-09-18T13:52:27;22.40;99.90
40123;DHT22;25832;45.490;4.912;2023-09-18T13:54:53;22.50;99.90
40123;DHT22;25832;45.490;4.912;2023-09-18T13:57:19;22.60;99.90
40123;DHT22;25832;45.490;4.912;2023-09-18T13:59:46;22.70;99.90
40123;DHT22;25832;45.490;4.912;2023-09-18T14:02:12;22.70;99.90
40123;DHT22;25832;45.490;4.912;2023-09-18T14:04:38;22.80;99.90
40123;DHT22;25832;45.490;4.912;2023-09-18T14:07:08;22.80;99.90
40123;DHT22;25832;45.490;4.912;2023-09-18T14:09:34;22.80;99.90
40123;DHT22;25832;45.490;4.912;2023-09-18T14:12:01;22.80;99.90
40123;DHT22;25832;45.490;4.912;2023-09-18T14:14:26;22.90;99.90
40123;DHT22;25832;45.490;4.912;2023-09-18T14:16:52;23.00;99.90
40123;DHT22;25832;45.490;4.912;2023-09-18T14:19:19;23.20;99.90
40123;DHT22;25832;45.490;4.912;2023-09-18T17:39:03;20.90;99.90
40123;DHT22;25832;45.490;4.912;2023-09-18T17:41:29;20.90;99.90
40123;DHT22;25832;45.490;4.912;2023-09-18T17:43:55;20.80;99.90
40123;DHT22;25832;45.490;4.912;2023-09-18T17:46:21;20.80;99.90
40123;DHT22;25832;45.490;4.912;2023-09-18T17:48:46;20.70;99.90
40123;DHT22;25832;45.490;4.912;2023-09-18T17:51:12;20.60;99.90
40123;DHT22;25832;45.490;4.912;2023-09-18T17:53:39;20.50;99.90
40123;DHT22;25832;45.490;4.912;2023-09-18T17:56:05;20.40;99.90
40123;DHT22;25832;45.490;4.912;2023-09-18T17:58:31;20.30;99.90
40123;DHT22;25832;45.490;4.912;2023-09-18T18:00:57;20.30;99.90
40123;DHT22;25832;45.490;4.912;2023-09-18T18:03:22;20.30;99.90
40123;DHT22;25832;45.490;4.912;2023-09-18T18:05:49;20.20;99.90
40123;DHT22;25832;45.490;4.912;2023-09-18T18:08:15;20.20;99.90
40123;DHT22;25832;45.490;4.912;2023-09-18T18:10:45;20.10;99.90
40123;DHT22;25832;45.490;4.912;2023-09-18T18:13:11;20.10;99.90
40123;DHT22;25832;45.490;4.912;2023-09-18T18:15:38;20.00;99.90
40123;DHT22;25832;45.490;4.912;2023-09-18T18:18:04;20.00;99.90
40123;DHT22;25832;45.490;4.912;2023-09-18T18:20:30;20.00;99.90
40123;DHT22;25832;45.490;4.912;2023-09-18T18:22:55;19.90;99.90
40123;DHT22;25832;45.490;4.912;2023-09-18T18:25:23;19.90;99.90
40123;DHT22;25832;45.490;4.912;2023-09-18T18:27:48;19.90;99.90
40123;DHT22;25832;45.490;4.912;2023-09-18T18:30:14;19.80;99.90
40123;DHT22;25832;45.490;4.912;2023-09-18T18:32:42;19.80;99.90
40123;DHT22;25832;45.490;4.912;2023-09-18T18:35:08;19.80;99.90
40123;DHT22;25832;45.490;4.912;2023-09-18T18:37:34;19.80;99.90
40123;DHT22;25832;45.490;4.912;2023-09-18T18:39:59;19.80;99.90
40123;DHT22;25832;45.490;4.912;2023-09-18T18:42:25;19.80;99.90
40123;DHT22;25832;45.490;4.912;2023-09-18T18:44:51;19.70;99.90
40123;DHT22;25832;45.490;4.912;2023-09-18T18:47:18;19.70;99.90
40123;DHT22;25832;45.490;4.912;2023-09-18T18:49:44;19.70;99.90
40123;DHT22;25832;45.490;4.912;2023-09-18T18:52:10;19.70;99.90
40123;DHT22;25832;45.490;4.912;2023-09-18T18:54:37;19.70;99.90
40123;DHT22;25832;45.490;4.912;2023-09-18T18:57:02;19.70;99.90
40123;DHT22;25832;45.490;4.912;2023-09-18T18:59:28;19.70;99.90
40123;DHT22;25832;45.490;4.912;2023-09-18T19:01:54;19.60;99.90
40123;DHT22;25832;45.490;4.912;2023-09-18T19:04:20;19.60;99.90
40123;DHT22;25832;45.490;4.912;2023-09-18T19:06:46;19.60;99.90
40123;DHT22;25832;45.490;4.912;2023-09-18T19:09:11;19.60;99.90
40123;DHT22;25832;45.490;4.912;2023-09-18T19:11:38;19.60;99.90
40123;DHT22;25832;45.490;4.912;2023-09-18T19:14:04;19.70;99.90
40123;DHT22;25832;45.490;4.912;2023-09-18T19:16:30;19.60;99.90
40123;DHT22;25832;45.490;4.912;2023-09-18T19:18:55;19.60;99.90
40123;DHT22;25832;45.490;4.912;2023-09-18T19:21:24;19.50;99.90
40123;DHT22;25832;45.490;4.912;2023-09-18T19:23:50;19.60;99.90
40123;DHT22;25832;45.490;4.912;2023-09-18T19:26:16;19.60;99.90
40123;DHT22;25832;45.490;4.912;2023-09-18T19:28:44;19.60;99.90
40123;DHT22;25832;45.490;4.912;2023-09-18T19:31:10;19.60;99.90
40123;DHT22;25832;45.490;4.912;2023-09-18T19:33:36;19.60;99.90
40123;DHT22;25832;45.490;4.912;2023-09-18T19:36:05;19.60;99.90
40123;DHT22;25832;45.490;4.912;2023-09-18T19:38:32;19.60;99.90
40123;DHT22;25832;45.490;4.912;2023-09-18T19:40:58;19.50;99.90
40123;DHT22;25832;45.490;4.912;2023-09-18T19:43:25;19.60;99.90
40123;DHT22;25832;45.490;4.912;2023-09-18T19:45:50;19.50;99.90
40123;DHT22;25832;45.490;4.912;2023-09-18T19:48:16;19.60;99.90
40123;DHT22;25832;45.490;4.912;2023-09-18T19:50:42;19.50;99.90
40123;DHT22;25832;45.490;4.912;2023-09-18T19:53:08;19.60;99.90
40123;DHT22;25832;45.490;4.912;2023-09-18T19:55:34;19.50;99.90
40123;DHT22;25832;45.490;4.912;2023-09-18T19:58:00;19.50;99.90
40123;DHT22;25832;45.490;4.912;2023-09-18T20:00:26;19.50;99.90
40123;DHT22;25832;45.490;4.912;2023-09-18T20:02:52;19.50;99.90
40123;DHT22;25832;45.490;4.912;2023-09-18T20:05:21;19.50;99.90
40123;DHT22;25832;45.490;4.912;2023-09-18T20:07:49;19.50;99.90
40123;DHT22;25832;45.490;4.912;2023-09-18T20:10:15;19.50;99.90
40123;DHT22;25832;45.490;4.912;2023-09-18T20:12:48;19.60;99.90
40123;DHT22;25832;45.490;4.912;2023-09-18T20:15:18;19.70;99.90
40123;DHT22;25832;45.490;4.912;2023-09-18T20:17:45;19.70;99.90
40123;DHT22;25832;45.490;4.912;2023-09-18T20:20:12;19.70;99.90
40123;DHT22;25832;45.490;4.912;2023-09-18T20:22:39;19.70;99.90
40123;DHT22;25832;45.490;4.912;2023-09-18T20:25:08;19.70;99.90
40123;DHT22;25832;45.490;4.912;2023-09-18T20:27:38;19.70;99.90
40123;DHT22;25832;45.490;4.912;2023-09-18T20:30:08;19.70;99.90
40123;DHT22;25832;45.490;4.912;2023-09-18T20:32:35;19.70;99.90
40123;DHT22;25832;45.490;4.912;2023-09-18T20:35:00;19.60;99.90
40123;DHT22;25832;45.490;4.912;2023-09-18T20:37:26;19.70;99.90
40123;DHT22;25832;45.490;4.912;2023-09-18T20:39:53;19.60;99.90
40123;DHT22;25832;45.490;4.912;2023-09-18T20:42:19;19.60;99.90
40123;DHT22;25832;45.490;4.912;2023-09-18T20:44:45;19.60;99.90
40123;DHT22;25832;45.490;4.912;2023-09-18T20:47:11;19.60;99.90
40123;DHT22;25832;45.490;4.912;2023-09-18T20:49:36;19.50;99.90
40123;DHT22;25832;45.490;4.912;2023-09-18T20:52:02;19.30;99.90
40123;DHT22;25832;45.490;4.912;2023-09-18T20:54:28;19.20;99.90
40123;DHT22;25832;45.490;4.912;2023-09-18T20:56:53;19.10;99.90
40123;DHT22;25832;45.490;4.912;2023-09-18T20:59:19;19.10;99.90
40123;DHT22;25832;45.490;4.912;2023-09-18T21:01:45;19.00;99.90
40123;DHT22;25832;45.490;4.912;2023-09-18T21:04:11;19.00;99.90
40123;DHT22;25832;45.490;4.912;2023-09-18T21:06:37;18.90;99.90
40123;DHT22;25832;45.490;4.912;2023-09-18T21:09:03;18.80;99.90
40123;DHT22;25832;45.490;4.912;2023-09-18T21:11:28;18.70;99.90
40123;DHT22;25832;45.490;4.912;2023-09-18T21:13:55;18.60;99.90
40123;DHT22;25832;45.490;4.912;2023-09-18T21:16:20;18.50;99.90
40123;DHT22;25832;45.490;4.912;2023-09-18T21:18:46;18.40;99.90
40123;DHT22;25832;45.490;4.912;2023-09-18T21:21:13;18.20;99.90
40123;DHT22;25832;45.490;4.912;2023-09-18T21:23:38;18.30;99.90
40123;DHT22;25832;45.490;4.912;2023-09-18T21:26:04;18.30;99.90
40123;DHT22;25832;45.490;4.912;2023-09-18T21:28:30;18.20;99.90
40123;DHT22;25832;45.490;4.912;2023-09-18T21:31:09;18.20;99.90
40123;DHT22;25832;45.490;4.912;2023-09-18T21:33:36;18.20;99.90
40123;DHT22;25832;45.490;4.912;2023-09-18T21:36:02;18.20;99.90
40123;DHT22;25832;45.490;4.912;2023-09-18T21:38:28;18.20;99.90
40123;DHT22;25832;45.490;4.912;2023-09-18T21:40:57;18.20;99.90
40123;DHT22;25832;45.490;4.912;2023-09-18T21:43:22;18.20;99.90
40123;DHT22;25832;45.490;4.912;2023-09-18T21:45:50;18.10;99.90
40123;DHT22;25832;45.490;4.912;2023-09-18T21:48:16;18.10;99.90
40123;DHT22;25832;45.490;4.912;2023-09-18T21:50:42;18.10;99.90
40123;DHT22;25832;45.490;4.912;2023-09-18T21:53:07;18.00;99.90
40123;DHT22;25832;45.490;4.912;2023-09-18T21:55:34;17.90;99.90
40123;DHT22;25832;45.490;4.912;2023-09-18T21:57:59;17.90;99.90
40123;DHT22;25832;45.490;4.912;2023-09-18T22:00:26;17.80;99.90
40123;DHT22;25832;45.490;4.912;2023-09-18T22:02:56;17.80;99.90
40123;DHT22;25832;45.490;4.912;2023-09-18T22:05:21;17.80;99.90
40123;DHT22;25832;45.490;4.912;2023-09-18T22:07:48;17.70;99.90
40123;DHT22;25832;45.490;4.912;2023-09-18T22:10:14;17.80;99.90
40123;DHT22;25832;45.490;4.912;2023-09-18T22:12:41;17.70;99.90
40123;DHT22;25832;45.490;4.912;2023-09-18T22:15:07;17.70;99.90
40123;DHT22;25832;45.490;4.912;2023-09-18T22:17:32;17.70;99.90
40123;DHT22;25832;45.490;4.912;2023-09-18T22:20:01;17.70;99.90
40123;DHT22;25832;45.490;4.912;2023-09-18T22:22:26;17.70;99.90
40123;DHT22;25832;45.490;4.912;2023-09-18T22:24:55;17.70;99.90
40123;DHT22;25832;45.490;4.912;2023-09-18T22:27:21;17.80;99.90
40123;DHT22;25832;45.490;4.912;2023-09-18T22:29:49;17.80;99.90
40123;DHT22;25832;45.490;4.912;2023-09-18T22:32:18;17.80;99.90
40123;DHT22;25832;45.490;4.912;2023-09-18T22:34:51;17.80;99.90
40123;DHT22;25832;45.490;4.912;2023-09-18T22:37:20;17.90;99.90
40123;DHT22;25832;45.490;4.912;2023-09-18T22:56:20;17.80;99.90
40123;DHT22;25832;45.490;4.912;2023-09-18T22:58:48;17.90;99.90
40123;DHT22;25832;45.490;4.912;2023-09-18T23:01:14;17.90;99.90
40123;DHT22;25832;45.490;4.912;2023-09-18T23:03:41;17.90;99.90
40123;DHT22;25832;45.490;4.912;2023-09-18T23:06:08;17.90;99.90
40123;DHT22;25832;45.490;4.912;2023-09-18T23:08:34;17.90;99.90
40123;DHT22;25832;45.490;4.912;2023-09-18T23:11:00;17.90;99.90
40123;DHT22;25832;45.490;4.912;2023-09-18T23:13:32;18.00;99.90
40123;DHT22;25832;45.490;4.912;2023-09-18T23:15:59;18.00;99.90
40123;DHT22;25832;45.490;4.912;2023-09-18T23:18:25;18.00;99.90
40123;DHT22;25832;45.490;4.912;2023-09-18T23:20:51;18.00;99.90
40123;DHT22;25832;45.490;4.912;2023-09-18T23:23:17;18.00;99.90
40123;DHT22;25832;45.490;4.912;2023-09-18T23:25:43;18.00;99.90
40123;DHT22;25832;45.490;4.912;2023-09-18T23:28:11;17.90;99.90
40123;DHT22;25832;45.490;4.912;2023-09-18T23:30:40;17.90;99.90
40123;DHT22;25832;45.490;4.912;2023-09-18T23:33:08;17.90;99.90
40123;DHT22;25832;45.490;4.912;2023-09-18T23:35:36;18.00;99.90
40123;DHT22;25832;45.490;4.912;2023-09-18T23:38:03;18.10;99.90
40123;DHT22;25832;45.490;4.912;2023-09-18T23:40:31;18.00;99.90
40123;DHT22;25832;45.490;4.912;2023-09-18T23:43:02;18.10;99.90
40123;DHT22;25832;45.490;4.912;2023-09-18T23:45:36;18.00;99.90
40123;DHT22;25832;45.490;4.912;2023-09-18T23:48:15;18.20;99.90
40123;DHT22;25832;45.490;4.912;2023-09-18T23:50:44;18.20;99.90
40123;DHT22;25832;45.490;4.912;2023-09-18T23:53:18;18.20;99.90
40123;DHT22;25832;45.490;4.912;2023-09-18T23:55:44;18.20;99.90
40123;DHT22;25832;45.490;4.912;2023-09-18T23:58:11;18.10;99.90
